sensor_id;sensor_type;location;lat;lon;timestamp;temperature;humidity
35113;DHT22;21291;47.104;15.486;2022-07-15T00:00:18;19.50;90.30
35113;DHT22;21291;47.104;15.486;2022-07-15T00:03:15;19.50;90.20
35113;DHT22;21291;47.104;15.486;2022-07-15T00:05:41;19.40;91.00
35113;DHT22;21291;47.104;15.486;2022-07-15T00:08:30;19.30;90.50
35113;DHT22;21291;47.104;15.486;2022-07-15T00:14:20;19.30;90.90
35113;DHT22;21291;47.104;15.486;2022-07-15T00:29:55;19.10;91.20
35113;DHT22;21291;47.104;15.486;2022-07-15T00:32:46;19.10;91.00
35113;DHT22;21291;47.104;15.486;2022-07-15T00:35:12;19.10;91.40
35113;DHT22;21291;47.104;15.486;2022-07-15T00:37:38;19.20;91.60
35113;DHT22;21291;47.104;15.486;2022-07-15T00:44:03;19.20;91.60
35113;DHT22;21291;47.104;15.486;2022-07-15T00:47:18;19.20;90.60
35113;DHT22;21291;47.104;15.486;2022-07-15T00:53:47;19.30;91.50
35113;DHT22;21291;47.104;15.486;2022-07-15T01:00:13;19.30;90.60
35113;DHT22;21291;47.104;15.486;2022-07-15T01:03:02;19.40;90.60
35113;DHT22;21291;47.104;15.486;2022-07-15T01:15:41;19.60;90.60
35113;DHT22;21291;47.104;15.486;2022-07-15T01:21:19;19.60;90.30
35113;DHT22;21291;47.104;15.486;2022-07-15T01:23:47;19.60;90.20
35113;DHT22;21291;47.104;15.486;2022-07-15T01:26:14;19.60;90.00
35113;DHT22;21291;47.104;15.486;2022-07-15T01:28:42;19.60;90.20
35113;DHT22;21291;47.104;15.486;2022-07-15T01:31:11;19.60;90.60
35113;DHT22;21291;47.104;15.486;2022-07-15T01:33:36;19.60;89.00
35113;DHT22;21291;47.104;15.486;2022-07-15T01:36:04;19.60;89.90
35113;DHT22;21291;47.104;15.486;2022-07-15T01:38:30;19.60;90.30
35113;DHT22;21291;47.104;15.486;2022-07-15T01:41:00;19.50;90.30
35113;DHT22;21291;47.104;15.486;2022-07-15T01:43:26;19.60;90.60
35113;DHT22;21291;47.104;15.486;2022-07-15T01:45:52;19.60;90.70
35113;DHT22;21291;47.104;15.486;2022-07-15T01:48:17;19.60;90.20
35113;DHT22;21291;47.104;15.486;2022-07-15T01:51:36;19.70;88.70
35113;DHT22;21291;47.104;15.486;2022-07-15T01:57:38;19.70;90.00
35113;DHT22;21291;47.104;15.486;2022-07-15T02:00:07;19.70;90.20
35113;DHT22;21291;47.104;15.486;2022-07-15T02:02:39;19.70;90.40
35113;DHT22;21291;47.104;15.486;2022-07-15T02:05:08;19.60;90.20
35113;DHT22;21291;47.104;15.486;2022-07-15T02:07:37;19.60;90.30
35113;DHT22;21291;47.104;15.486;2022-07-15T02:10:04;19.60;90.40
35113;DHT22;21291;47.104;15.486;2022-07-15T02:12:29;19.60;90.50
35113;DHT22;21291;47.104;15.486;2022-07-15T02:14:55;19.50;90.10
35113;DHT22;21291;47.104;15.486;2022-07-15T02:17:21;19.50;90.00
35113;DHT22;21291;47.104;15.486;2022-07-15T02:19:50;19.40;89.60
35113;DHT22;21291;47.104;15.486;2022-07-15T02:25:37;19.30;90.00
35113;DHT22;21291;47.104;15.486;2022-07-15T02:31:35;19.30;89.70
35113;DHT22;21291;47.104;15.486;2022-07-15T02:41:26;19.20;90.80
35113;DHT22;21291;47.104;15.486;2022-07-15T02:51:05;19.10;90.40
35113;DHT22;21291;47.104;15.486;2022-07-15T02:56:53;19.00;90.80
35113;DHT22;21291;47.104;15.486;2022-07-15T03:03:21;18.90;91.00
35113;DHT22;21291;47.104;15.486;2022-07-15T03:05:47;18.90;91.10
35113;DHT22;21291;47.104;15.486;2022-07-15T03:08:14;18.90;91.30
35113;DHT22;21291;47.104;15.486;2022-07-15T03:11:00;18.80;90.70
35113;DHT22;21291;47.104;15.486;2022-07-15T03:16:50;18.70;90.90
35113;DHT22;21291;47.104;15.486;2022-07-15T03:22:54;18.70;91.10
35113;DHT22;21291;47.104;15.486;2022-07-15T03:28:56;18.60;91.00
35113;DHT22;21291;47.104;15.486;2022-07-15T03:31:23;18.60;92.10
35113;DHT22;21291;47.104;15.486;2022-07-15T03:33:48;18.70;91.90
35113;DHT22;21291;47.104;15.486;2022-07-15T03:36:17;18.70;90.90
35113;DHT22;21291;47.104;15.486;2022-07-15T03:39:10;18.70;91.60
35113;DHT22;21291;47.104;15.486;2022-07-15T03:44:58;18.70;91.20
35113;DHT22;21291;47.104;15.486;2022-07-15T03:50:46;18.70;91.30
35113;DHT22;21291;47.104;15.486;2022-07-15T03:56:48;18.80;91.40
35113;DHT22;21291;47.104;15.486;2022-07-15T04:03:10;18.90;90.90
35113;DHT22;21291;47.104;15.486;2022-07-15T04:08:40;18.90;90.80
35113;DHT22;21291;47.104;15.486;2022-07-15T04:14:46;19.00;91.70
35113;DHT22;21291;47.104;15.486;2022-07-15T04:20:54;19.00;91.60
35113;DHT22;21291;47.104;15.486;2022-07-15T04:23:20;19.10;91.50
35113;DHT22;21291;47.104;15.486;2022-07-15T04:25:46;19.10;91.70
35113;DHT22;21291;47.104;15.486;2022-07-15T04:28:12;19.10;91.50
35113;DHT22;21291;47.104;15.486;2022-07-15T04:34:38;19.10;91.50
35113;DHT22;21291;47.104;15.486;2022-07-15T04:37:24;19.10;92.30
35113;DHT22;21291;47.104;15.486;2022-07-15T04:50:18;19.30;91.40
35113;DHT22;21291;47.104;15.486;2022-07-15T04:56:34;19.30;91.40
35113;DHT22;21291;47.104;15.486;2022-07-15T05:02:35;19.30;92.20
35113;DHT22;21291;47.104;15.486;2022-07-15T05:08:40;19.40;91.70
35113;DHT22;21291;47.104;15.486;2022-07-15T05:14:29;19.50;92.40
35113;DHT22;21291;47.104;15.486;2022-07-15T05:16:54;19.60;92.80
35113;DHT22;21291;47.104;15.486;2022-07-15T05:19:21;19.60;92.90
35113;DHT22;21291;47.104;15.486;2022-07-15T05:22:09;19.60;92.60
35113;DHT22;21291;47.104;15.486;2022-07-15T05:24:39;19.70;93.00
35113;DHT22;21291;47.104;15.486;2022-07-15T05:27:04;19.80;92.90
35113;DHT22;21291;47.104;15.486;2022-07-15T05:29:30;20.00;93.30
35113;DHT22;21291;47.104;15.486;2022-07-15T05:35:25;20.10;93.00
35113;DHT22;21291;47.104;15.486;2022-07-15T05:38:04;20.20;92.50
35113;DHT22;21291;47.104;15.486;2022-07-15T05:40:38;20.30;92.50
35113;DHT22;21291;47.104;15.486;2022-07-15T05:43:04;20.40;91.80
35113;DHT22;21291;47.104;15.486;2022-07-15T05:45:30;20.40;92.20
35113;DHT22;21291;47.104;15.486;2022-07-15T05:47:55;20.40;92.00
35113;DHT22;21291;47.104;15.486;2022-07-15T05:50:23;20.40;93.10
35113;DHT22;21291;47.104;15.486;2022-07-15T05:52:49;20.40;93.00
35113;DHT22;21291;47.104;15.486;2022-07-15T05:55:17;20.40;92.90
35113;DHT22;21291;47.104;15.486;2022-07-15T05:57:43;20.40;92.80
35113;DHT22;21291;47.104;15.486;2022-07-15T06:00:10;20.40;93.50
35113;DHT22;21291;47.104;15.486;2022-07-15T06:02:36;20.50;93.10
35113;DHT22;21291;47.104;15.486;2022-07-15T06:05:05;20.50;92.90
35113;DHT22;21291;47.104;15.486;2022-07-15T06:07:33;20.70;93.20
35113;DHT22;21291;47.104;15.486;2022-07-15T06:09:59;20.70;92.50
35113;DHT22;21291;47.104;15.486;2022-07-15T06:12:24;20.80;89.20
35113;DHT22;21291;47.104;15.486;2022-07-15T06:14:50;20.90;89.70
35113;DHT22;21291;47.104;15.486;2022-07-15T06:17:16;21.00;86.90
35113;DHT22;21291;47.104;15.486;2022-07-15T06:19:42;21.10;80.50
35113;DHT22;21291;47.104;15.486;2022-07-15T06:22:07;21.20;84.30
35113;DHT22;21291;47.104;15.486;2022-07-15T06:24:33;21.30;80.60
35113;DHT22;21291;47.104;15.486;2022-07-15T06:26:59;21.40;79.00
35113;DHT22;21291;47.104;15.486;2022-07-15T06:29:25;21.40;81.80
35113;DHT22;21291;47.104;15.486;2022-07-15T06:31:50;21.40;81.10
35113;DHT22;21291;47.104;15.486;2022-07-15T06:34:17;21.50;78.80
35113;DHT22;21291;47.104;15.486;2022-07-15T06:36:43;21.50;78.60
35113;DHT22;21291;47.104;15.486;2022-07-15T06:39:08;21.50;83.90
35113;DHT22;21291;47.104;15.486;2022-07-15T06:41:34;21.50;86.80
35113;DHT22;21291;47.104;15.486;2022-07-15T06:47:12;21.50;86.70
35113;DHT22;21291;47.104;15.486;2022-07-15T06:50:27;21.50;87.20
35113;DHT22;21291;47.104;15.486;2022-07-15T07:03:17;21.50;86.20
35113;DHT22;21291;47.104;15.486;2022-07-15T07:05:46;21.50;86.60
35113;DHT22;21291;47.104;15.486;2022-07-15T07:21:47;21.60;88.50
35113;DHT22;21291;47.104;15.486;2022-07-15T07:28:11;21.50;85.70
35113;DHT22;21291;47.104;15.486;2022-07-15T07:31:20;21.60;88.50
35113;DHT22;21291;47.104;15.486;2022-07-15T07:50:55;22.10;85.70
35113;DHT22;21291;47.104;15.486;2022-07-15T08:00:52;22.40;81.70
35113;DHT22;21291;47.104;15.486;2022-07-15T08:24:22;23.10;76.00
35113;DHT22;21291;47.104;15.486;2022-07-15T08:26:48;23.20;81.10
35113;DHT22;21291;47.104;15.486;2022-07-15T08:29:14;23.30;77.20
35113;DHT22;21291;47.104;15.486;2022-07-15T08:31:39;23.30;77.20
35113;DHT22;21291;47.104;15.486;2022-07-15T08:37:31;23.40;75.70
35113;DHT22;21291;47.104;15.486;2022-07-15T08:39:57;23.40;73.70
35113;DHT22;21291;47.104;15.486;2022-07-15T08:42:23;23.40;80.80
35113;DHT22;21291;47.104;15.486;2022-07-15T08:44:48;23.40;81.70
35113;DHT22;21291;47.104;15.486;2022-07-15T08:47:19;23.40;75.60
35113;DHT22;21291;47.104;15.486;2022-07-15T08:49:49;23.40;76.00
35113;DHT22;21291;47.104;15.486;2022-07-15T08:52:20;23.30;76.50
35113;DHT22;21291;47.104;15.486;2022-07-15T08:54:51;23.20;75.90
35113;DHT22;21291;47.104;15.486;2022-07-15T08:57:38;23.10;76.70
35113;DHT22;21291;47.104;15.486;2022-07-15T09:00:26;22.90;77.80
35113;DHT22;21291;47.104;15.486;2022-07-15T09:06:44;22.80;79.90
35113;DHT22;21291;47.104;15.486;2022-07-15T09:13:49;22.70;78.10
35113;DHT22;21291;47.104;15.486;2022-07-15T09:20:20;22.80;77.60
35113;DHT22;21291;47.104;15.486;2022-07-15T09:29:49;22.90;81.00
35113;DHT22;21291;47.104;15.486;2022-07-15T09:43:16;23.90;74.10
35113;DHT22;21291;47.104;15.486;2022-07-15T09:45:42;24.20;76.30
35113;DHT22;21291;47.104;15.486;2022-07-15T09:48:11;24.30;75.90
35113;DHT22;21291;47.104;15.486;2022-07-15T09:50:41;24.50;76.90
35113;DHT22;21291;47.104;15.486;2022-07-15T09:53:14;24.60;74.00
35113;DHT22;21291;47.104;15.486;2022-07-15T09:55:42;24.60;71.50
35113;DHT22;21291;47.104;15.486;2022-07-15T09:58:08;24.50;71.30
35113;DHT22;21291;47.104;15.486;2022-07-15T10:00:37;24.40;73.00
35113;DHT22;21291;47.104;15.486;2022-07-15T10:03:03;24.30;72.00
35113;DHT22;21291;47.104;15.486;2022-07-15T10:05:29;24.10;74.70
35113;DHT22;21291;47.104;15.486;2022-07-15T10:07:58;23.90;72.10
35113;DHT22;21291;47.104;15.486;2022-07-15T10:10:27;23.70;76.10
35113;DHT22;21291;47.104;15.486;2022-07-15T10:16:14;23.60;77.70
35113;DHT22;21291;47.104;15.486;2022-07-15T10:24:26;24.00;74.60
35113;DHT22;21291;47.104;15.486;2022-07-15T10:27:23;24.30;70.50
35113;DHT22;21291;47.104;15.486;2022-07-15T10:29:54;24.40;73.60
35113;DHT22;21291;47.104;15.486;2022-07-15T10:32:20;24.60;72.60
35113;DHT22;21291;47.104;15.486;2022-07-15T10:34:46;24.70;73.40
35113;DHT22;21291;47.104;15.486;2022-07-15T10:37:14;24.80;68.80
35113;DHT22;21291;47.104;15.486;2022-07-15T10:39:59;24.80;73.00
35113;DHT22;21291;47.104;15.486;2022-07-15T10:42:58;24.90;72.60
35113;DHT22;21291;47.104;15.486;2022-07-15T10:45:25;24.90;75.10
35113;DHT22;21291;47.104;15.486;2022-07-15T10:48:29;24.90;76.10
35113;DHT22;21291;47.104;15.486;2022-07-15T10:50:55;24.90;72.00
35113;DHT22;21291;47.104;15.486;2022-07-15T10:53:24;24.90;73.80
35113;DHT22;21291;47.104;15.486;2022-07-15T10:55:51;25.10;71.60
35113;DHT22;21291;47.104;15.486;2022-07-15T10:58:17;25.20;71.40
35113;DHT22;21291;47.104;15.486;2022-07-15T11:00:44;25.30;69.20
35113;DHT22;21291;47.104;15.486;2022-07-15T11:03:12;25.30;71.70
35113;DHT22;21291;47.104;15.486;2022-07-15T11:13:45;25.10;68.00
35113;DHT22;21291;47.104;15.486;2022-07-15T11:16:16;24.90;68.60
35113;DHT22;21291;47.104;15.486;2022-07-15T11:18:46;24.80;72.70
35113;DHT22;21291;47.104;15.486;2022-07-15T11:21:12;24.80;73.70
35113;DHT22;21291;47.104;15.486;2022-07-15T11:23:38;24.80;73.90
35113;DHT22;21291;47.104;15.486;2022-07-15T11:26:04;24.80;72.80
35113;DHT22;21291;47.104;15.486;2022-07-15T11:28:30;24.90;73.30
35113;DHT22;21291;47.104;15.486;2022-07-15T11:30:56;25.10;71.70
35113;DHT22;21291;47.104;15.486;2022-07-15T11:33:23;25.40;70.40
35113;DHT22;21291;47.104;15.486;2022-07-15T11:36:02;25.60;70.80
35113;DHT22;21291;47.104;15.486;2022-07-15T11:38:31;25.70;71.00
35113;DHT22;21291;47.104;15.486;2022-07-15T11:41:02;25.80;67.50
35113;DHT22;21291;47.104;15.486;2022-07-15T11:44:01;25.80;70.40
35113;DHT22;21291;47.104;15.486;2022-07-15T11:46:47;25.80;67.00
35113;DHT22;21291;47.104;15.486;2022-07-15T11:49:32;25.60;69.60
35113;DHT22;21291;47.104;15.486;2022-07-15T11:52:00;25.50;69.70
35113;DHT22;21291;47.104;15.486;2022-07-15T11:54:26;25.40;70.30
35113;DHT22;21291;47.104;15.486;2022-07-15T11:56:57;25.50;68.70
35113;DHT22;21291;47.104;15.486;2022-07-15T11:59:23;25.50;70.60
35113;DHT22;21291;47.104;15.486;2022-07-15T12:02:03;25.50;73.30
35113;DHT22;21291;47.104;15.486;2022-07-15T12:04:30;25.40;71.30
35113;DHT22;21291;47.104;15.486;2022-07-15T12:06:56;25.30;71.60
35113;DHT22;21291;47.104;15.486;2022-07-15T12:09:22;25.20;72.60
35113;DHT22;21291;47.104;15.486;2022-07-15T12:11:47;25.10;70.60
35113;DHT22;21291;47.104;15.486;2022-07-15T12:14:21;25.00;71.90
35113;DHT22;21291;47.104;15.486;2022-07-15T12:16:50;24.90;72.80
35113;DHT22;21291;47.104;15.486;2022-07-15T12:19:20;24.80;71.70
35113;DHT22;21291;47.104;15.486;2022-07-15T12:21:49;24.80;74.30
35113;DHT22;21291;47.104;15.486;2022-07-15T12:24:17;24.90;71.50
35113;DHT22;21291;47.104;15.486;2022-07-15T12:26:57;24.90;72.90
35113;DHT22;21291;47.104;15.486;2022-07-15T12:29:25;25.00;70.30
35113;DHT22;21291;47.104;15.486;2022-07-15T12:31:56;25.00;72.90
35113;DHT22;21291;47.104;15.486;2022-07-15T12:37:23;25.00;71.90
35113;DHT22;21291;47.104;15.486;2022-07-15T12:40:22;24.90;72.40
35113;DHT22;21291;47.104;15.486;2022-07-15T12:42:52;24.90;70.80
35113;DHT22;21291;47.104;15.486;2022-07-15T12:50:29;25.70;71.20
35113;DHT22;21291;47.104;15.486;2022-07-15T12:52:56;25.80;65.20
35113;DHT22;21291;47.104;15.486;2022-07-15T12:55:26;25.80;67.10
35113;DHT22;21291;47.104;15.486;2022-07-15T12:58:05;25.70;67.20
35113;DHT22;21291;47.104;15.486;2022-07-15T13:00:32;25.50;69.30
35113;DHT22;21291;47.104;15.486;2022-07-15T13:05:32;24.90;67.50
35113;DHT22;21291;47.104;15.486;2022-07-15T13:07:58;24.70;68.50
35113;DHT22;21291;47.104;15.486;2022-07-15T13:10:24;24.50;71.30
35113;DHT22;21291;47.104;15.486;2022-07-15T13:12:50;24.30;70.50
35113;DHT22;21291;47.104;15.486;2022-07-15T13:15:16;24.20;73.10
35113;DHT22;21291;47.104;15.486;2022-07-15T13:17:41;24.00;74.80
35113;DHT22;21291;47.104;15.486;2022-07-15T13:20:07;23.90;74.70
35113;DHT22;21291;47.104;15.486;2022-07-15T13:22:34;23.80;73.50
35113;DHT22;21291;47.104;15.486;2022-07-15T13:25:00;23.70;75.10
35113;DHT22;21291;47.104;15.486;2022-07-15T13:27:26;23.70;73.70
35113;DHT22;21291;47.104;15.486;2022-07-15T13:29:51;23.50;76.80
35113;DHT22;21291;47.104;15.486;2022-07-15T13:32:18;23.40;77.40
35113;DHT22;21291;47.104;15.486;2022-07-15T13:34:43;23.30;77.10
35113;DHT22;21291;47.104;15.486;2022-07-15T13:37:09;23.20;76.60
35113;DHT22;21291;47.104;15.486;2022-07-15T13:39:34;23.20;77.70
35113;DHT22;21291;47.104;15.486;2022-07-15T13:42:01;23.10;78.00
35113;DHT22;21291;47.104;15.486;2022-07-15T13:44:26;23.00;78.60
35113;DHT22;21291;47.104;15.486;2022-07-15T13:46:52;22.90;77.60
35113;DHT22;21291;47.104;15.486;2022-07-15T13:49:18;22.80;78.80
35113;DHT22;21291;47.104;15.486;2022-07-15T13:51:43;22.70;77.60
35113;DHT22;21291;47.104;15.486;2022-07-15T13:54:09;22.70;81.20
35113;DHT22;21291;47.104;15.486;2022-07-15T13:56:36;22.70;78.80
35113;DHT22;21291;47.104;15.486;2022-07-15T13:59:02;22.60;81.40
35113;DHT22;21291;47.104;15.486;2022-07-15T14:01:29;22.50;83.40
35113;DHT22;21291;47.104;15.486;2022-07-15T14:03:58;22.50;83.50
35113;DHT22;21291;47.104;15.486;2022-07-15T14:06:23;22.40;87.40
35113;DHT22;21291;47.104;15.486;2022-07-15T14:08:49;22.30;86.50
35113;DHT22;21291;47.104;15.486;2022-07-15T14:11:15;22.40;86.60
35113;DHT22;21291;47.104;15.486;2022-07-15T14:13:41;22.40;89.00
35113;DHT22;21291;47.104;15.486;2022-07-15T14:16:07;22.40;91.00
35113;DHT22;21291;47.104;15.486;2022-07-15T14:18:33;22.30;90.40
35113;DHT22;21291;47.104;15.486;2022-07-15T14:21:15;22.20;90.40
35113;DHT22;21291;47.104;15.486;2022-07-15T14:23:42;22.20;90.30
35113;DHT22;21291;47.104;15.486;2022-07-15T14:26:08;22.10;91.10
35113;DHT22;21291;47.104;15.486;2022-07-15T14:28:34;22.00;90.50
35113;DHT22;21291;47.104;15.486;2022-07-15T14:31:00;21.90;90.60
35113;DHT22;21291;47.104;15.486;2022-07-15T14:33:25;21.90;89.80
35113;DHT22;21291;47.104;15.486;2022-07-15T14:35:51;22.00;90.30
35113;DHT22;21291;47.104;15.486;2022-07-15T14:38:17;22.00;90.00
35113;DHT22;21291;47.104;15.486;2022-07-15T14:40:43;22.00;85.30
35113;DHT22;21291;47.104;15.486;2022-07-15T14:43:08;22.00;86.00
35113;DHT22;21291;47.104;15.486;2022-07-15T14:45:34;21.90;86.40
35113;DHT22;21291;47.104;15.486;2022-07-15T14:47:59;21.90;85.90
35113;DHT22;21291;47.104;15.486;2022-07-15T14:50:25;21.80;87.60
35113;DHT22;21291;47.104;15.486;2022-07-15T14:52:51;21.70;87.00
35113;DHT22;21291;47.104;15.486;2022-07-15T14:55:16;21.60;87.40
35113;DHT22;21291;47.104;15.486;2022-07-15T14:57:42;21.50;89.10
35113;DHT22;21291;47.104;15.486;2022-07-15T15:00:08;21.50;87.30
35113;DHT22;21291;47.104;15.486;2022-07-15T15:02:34;21.50;90.00
35113;DHT22;21291;47.104;15.486;2022-07-15T15:05:00;21.40;87.40
35113;DHT22;21291;47.104;15.486;2022-07-15T15:07:25;21.40;88.50
35113;DHT22;21291;47.104;15.486;2022-07-15T15:09:51;21.40;87.70
35113;DHT22;21291;47.104;15.486;2022-07-15T15:12:17;21.40;88.10
35113;DHT22;21291;47.104;15.486;2022-07-15T15:14:42;21.40;87.40
35113;DHT22;21291;47.104;15.486;2022-07-15T15:17:08;21.40;88.20
35113;DHT22;21291;47.104;15.486;2022-07-15T15:19:34;21.30;90.10
35113;DHT22;21291;47.104;15.486;2022-07-15T15:22:00;21.40;90.00
35113;DHT22;21291;47.104;15.486;2022-07-15T15:24:26;21.30;90.10
35113;DHT22;21291;47.104;15.486;2022-07-15T15:26:52;21.20;90.60
35113;DHT22;21291;47.104;15.486;2022-07-15T15:29:19;21.20;90.50
35113;DHT22;21291;47.104;15.486;2022-07-15T15:31:45;21.20;90.00
35113;DHT22;21291;47.104;15.486;2022-07-15T15:34:11;21.20;90.50
35113;DHT22;21291;47.104;15.486;2022-07-15T15:36:36;21.20;91.00
35113;DHT22;21291;47.104;15.486;2022-07-15T15:39:02;21.20;90.80
35113;DHT22;21291;47.104;15.486;2022-07-15T15:41:28;21.20;91.10
35113;DHT22;21291;47.104;15.486;2022-07-15T15:43:54;21.20;91.30
35113;DHT22;21291;47.104;15.486;2022-07-15T15:46:20;21.20;91.20
35113;DHT22;21291;47.104;15.486;2022-07-15T15:48:45;21.20;91.60
35113;DHT22;21291;47.104;15.486;2022-07-15T15:51:11;21.20;92.10
35113;DHT22;21291;47.104;15.486;2022-07-15T15:53:37;21.20;92.80
35113;DHT22;21291;47.104;15.486;2022-07-15T15:56:02;21.10;92.90
35113;DHT22;21291;47.104;15.486;2022-07-15T15:58:28;21.10;91.60
35113;DHT22;21291;47.104;15.486;2022-07-15T16:00:54;21.10;92.60
35113;DHT22;21291;47.104;15.486;2022-07-15T16:03:20;21.00;91.70
35113;DHT22;21291;47.104;15.486;2022-07-15T16:05:46;20.90;92.70
35113;DHT22;21291;47.104;15.486;2022-07-15T16:08:12;20.80;92.80
35113;DHT22;21291;47.104;15.486;2022-07-15T16:10:37;20.80;93.60
35113;DHT22;21291;47.104;15.486;2022-07-15T16:13:03;20.80;93.40
35113;DHT22;21291;47.104;15.486;2022-07-15T16:15:29;20.70;92.90
35113;DHT22;21291;47.104;15.486;2022-07-15T16:17:54;20.70;93.70
35113;DHT22;21291;47.104;15.486;2022-07-15T16:20:20;20.70;94.30
35113;DHT22;21291;47.104;15.486;2022-07-15T16:22:46;20.70;94.00
35113;DHT22;21291;47.104;15.486;2022-07-15T16:27:50;20.70;94.10
35113;DHT22;21291;47.104;15.486;2022-07-15T16:30:17;20.60;92.80
35113;DHT22;21291;47.104;15.486;2022-07-15T16:32:43;20.60;93.30
35113;DHT22;21291;47.104;15.486;2022-07-15T16:35:09;20.50;93.20
35113;DHT22;21291;47.104;15.486;2022-07-15T16:37:34;20.50;93.00
35113;DHT22;21291;47.104;15.486;2022-07-15T16:40:00;20.40;92.90
35113;DHT22;21291;47.104;15.486;2022-07-15T16:42:26;20.40;94.20
35113;DHT22;21291;47.104;15.486;2022-07-15T16:44:52;20.40;94.50
35113;DHT22;21291;47.104;15.486;2022-07-15T16:47:17;20.50;94.70
35113;DHT22;21291;47.104;15.486;2022-07-15T16:49:43;20.50;94.90
35113;DHT22;21291;47.104;15.486;2022-07-15T16:52:09;20.50;94.00
35113;DHT22;21291;47.104;15.486;2022-07-15T16:54:34;20.50;94.30
35113;DHT22;21291;47.104;15.486;2022-07-15T16:57:00;20.50;94.70
35113;DHT22;21291;47.104;15.486;2022-07-15T16:59:26;20.50;93.90
35113;DHT22;21291;47.104;15.486;2022-07-15T17:01:51;20.50;94.00
35113;DHT22;21291;47.104;15.486;2022-07-15T17:04:18;20.50;94.10
35113;DHT22;21291;47.104;15.486;2022-07-15T17:06:44;20.50;94.00
35113;DHT22;21291;47.104;15.486;2022-07-15T17:09:10;20.40;94.10
35113;DHT22;21291;47.104;15.486;2022-07-15T17:11:36;20.40;94.60
35113;DHT22;21291;47.104;15.486;2022-07-15T17:14:02;20.40;94.40
35113;DHT22;21291;47.104;15.486;2022-07-15T17:16:28;20.40;94.30
35113;DHT22;21291;47.104;15.486;2022-07-15T17:18:53;20.40;94.80
35113;DHT22;21291;47.104;15.486;2022-07-15T17:21:19;20.40;94.20
35113;DHT22;21291;47.104;15.486;2022-07-15T17:23:45;20.40;94.50
35113;DHT22;21291;47.104;15.486;2022-07-15T17:26:10;20.40;94.70
35113;DHT22;21291;47.104;15.486;2022-07-15T17:28:36;20.30;94.20
35113;DHT22;21291;47.104;15.486;2022-07-15T17:31:03;20.30;93.80
35113;DHT22;21291;47.104;15.486;2022-07-15T17:33:29;20.30;94.30
35113;DHT22;21291;47.104;15.486;2022-07-15T17:35:55;20.20;94.50
35113;DHT22;21291;47.104;15.486;2022-07-15T17:38:25;20.20;95.00
35113;DHT22;21291;47.104;15.486;2022-07-15T17:40:51;20.20;95.00
35113;DHT22;21291;47.104;15.486;2022-07-15T17:43:17;20.30;95.60
35113;DHT22;21291;47.104;15.486;2022-07-15T17:45:42;20.30;95.10
35113;DHT22;21291;47.104;15.486;2022-07-15T17:48:08;20.30;95.40
35113;DHT22;21291;47.104;15.486;2022-07-15T17:50:34;20.30;95.40
35113;DHT22;21291;47.104;15.486;2022-07-15T17:53:00;20.20;94.90
35113;DHT22;21291;47.104;15.486;2022-07-15T17:55:26;20.30;95.20
35113;DHT22;21291;47.104;15.486;2022-07-15T17:57:51;20.20;95.10
35113;DHT22;21291;47.104;15.486;2022-07-15T18:00:17;20.20;95.10
35113;DHT22;21291;47.104;15.486;2022-07-15T18:02:43;20.20;94.50
35113;DHT22;21291;47.104;15.486;2022-07-15T18:05:08;20.20;95.10
35113;DHT22;21291;47.104;15.486;2022-07-15T18:07:35;20.20;95.10
35113;DHT22;21291;47.104;15.486;2022-07-15T18:10:01;20.20;95.90
35113;DHT22;21291;47.104;15.486;2022-07-15T18:12:27;20.20;96.20
35113;DHT22;21291;47.104;15.486;2022-07-15T18:14:52;20.20;96.00
35113;DHT22;21291;47.104;15.486;2022-07-15T18:17:18;20.20;96.10
35113;DHT22;21291;47.104;15.486;2022-07-15T18:19:44;20.20;96.50
35113;DHT22;21291;47.104;15.486;2022-07-15T18:22:10;20.10;96.00
35113;DHT22;21291;47.104;15.486;2022-07-15T18:24:36;20.10;96.60
35113;DHT22;21291;47.104;15.486;2022-07-15T18:27:01;20.10;96.20
35113;DHT22;21291;47.104;15.486;2022-07-15T18:29:27;20.10;96.40
35113;DHT22;21291;47.104;15.486;2022-07-15T18:31:53;20.00;96.70
35113;DHT22;21291;47.104;15.486;2022-07-15T18:34:19;20.10;97.00
35113;DHT22;21291;47.104;15.486;2022-07-15T18:36:45;20.10;97.00
35113;DHT22;21291;47.104;15.486;2022-07-15T18:39:10;20.10;96.70
35113;DHT22;21291;47.104;15.486;2022-07-15T18:41:36;20.10;97.10
35113;DHT22;21291;47.104;15.486;2022-07-15T18:44:02;20.00;97.00
35113;DHT22;21291;47.104;15.486;2022-07-15T18:46:28;20.00;96.50
35113;DHT22;21291;47.104;15.486;2022-07-15T18:48:55;20.00;96.80
35113;DHT22;21291;47.104;15.486;2022-07-15T18:51:21;19.90;96.80
35113;DHT22;21291;47.104;15.486;2022-07-15T18:53:47;19.90;96.80
35113;DHT22;21291;47.104;15.486;2022-07-15T18:56:12;20.00;96.90
35113;DHT22;21291;47.104;15.486;2022-07-15T18:58:40;19.90;96.80
35113;DHT22;21291;47.104;15.486;2022-07-15T19:01:07;20.00;96.80
35113;DHT22;21291;47.104;15.486;2022-07-15T19:03:33;19.90;96.90
35113;DHT22;21291;47.104;15.486;2022-07-15T19:06:00;19.90;96.90
35113;DHT22;21291;47.104;15.486;2022-07-15T19:08:25;19.90;97.20
35113;DHT22;21291;47.104;15.486;2022-07-15T19:10:52;19.90;97.60
35113;DHT22;21291;47.104;15.486;2022-07-15T19:13:21;19.90;97.30
35113;DHT22;21291;47.104;15.486;2022-07-15T19:15:48;19.80;97.70
35113;DHT22;21291;47.104;15.486;2022-07-15T19:18:14;19.80;98.10
35113;DHT22;21291;47.104;15.486;2022-07-15T19:20:41;19.80;98.00
35113;DHT22;21291;47.104;15.486;2022-07-15T19:23:07;19.80;97.60
35113;DHT22;21291;47.104;15.486;2022-07-15T19:25:34;19.80;97.40
35113;DHT22;21291;47.104;15.486;2022-07-15T19:28:01;19.80;97.90
35113;DHT22;21291;47.104;15.486;2022-07-15T19:30:27;19.80;97.50
35113;DHT22;21291;47.104;15.486;2022-07-15T19:32:56;19.80;97.50
35113;DHT22;21291;47.104;15.486;2022-07-15T19:35:22;19.80;98.00
35113;DHT22;21291;47.104;15.486;2022-07-15T19:37:48;19.90;97.40
35113;DHT22;21291;47.104;15.486;2022-07-15T19:40:14;19.90;97.40
35113;DHT22;21291;47.104;15.486;2022-07-15T19:42:40;19.80;97.40
35113;DHT22;21291;47.104;15.486;2022-07-15T19:45:07;19.80;97.70
35113;DHT22;21291;47.104;15.486;2022-07-15T19:47:34;19.80;97.70
35113;DHT22;21291;47.104;15.486;2022-07-15T19:50:00;19.80;97.50
35113;DHT22;21291;47.104;15.486;2022-07-15T19:52:27;19.80;97.50
35113;DHT22;21291;47.104;15.486;2022-07-15T19:54:52;19.70;97.50
35113;DHT22;21291;47.104;15.486;2022-07-15T19:57:18;19.70;98.00
35113;DHT22;21291;47.104;15.486;2022-07-15T19:59:44;19.80;97.70
35113;DHT22;21291;47.104;15.486;2022-07-15T20:02:28;19.80;97.90
35113;DHT22;21291;47.104;15.486;2022-07-15T20:04:54;19.80;97.80